• Join FlightAware (Why Join?)
  • Login
  • US Flag 
09:46PM EDT


 

Airport Tracker/Info


-or-


 

Live Flight TrackerFlight Track Log ✈ DAL3995 ✈ 06-Aug-2013 ✈ KDTW - KAZO

Flight Track Log - Related Links

Times and Time Zones

All times are in EDT time to prevent confusion due to time zone crossing. See the DAL3995 flight status page for this flight to view local times or setup timezone preferences in your user account.

Time Position Orientation Groundspeed Altitude Reporting Facility
EDT Latitude Longitude Course Direction KTS MPH feet Rate Location/Type
08:07PM 42.2011 -83.3778 275° West 167 192 1,300  Level Cleveland Center
08:08PM 42.2042 -83.4256 275° West 214 246 2,500 1,440 Climbing Cleveland Center
08:09PM 42.2142 -83.5242 278° West 259 298 4,000 1,260 Climbing Cleveland Center
08:10PM 42.2222 -83.6086 277° West 272 313 5,100 1,740 Climbing Cleveland Center
08:11PM 42.2278 -83.7128 274° West 265 305 7,400 2,340 Climbing Cleveland Center
08:12PM 42.2356 -83.8114 276° West 272 313 9,900 600 Climbing Cleveland Center
08:14PM 42.2420 -83.9596 273° West  Level FlightAware Approximate
08:15PM 42.2633 -84.2025 273° West 358 412 10,000  Level Chicago Center
08:16PM 42.2622 -84.3347 269° West 355 409 10,000  Level Chicago Center
08:17PM 42.2594 -84.4672 268° West 354 407 10,000  Level Chicago Center
08:18PM 42.2575 -84.5986 269° West 352 405 10,000  Level Chicago Center
08:19PM 42.2606 -84.7569 272° West 353 406 10,000  Level Chicago Center
08:20PM 42.2783 -84.8850 281° West 350 403 10,000 -240 Level Chicago Center
08:21PM 42.2906 -84.9917 279° West 295 339 9,600 -1,200 Descending Chicago Center
08:22PM 42.3042 -85.0861 281° West 261 300 7,600 -1,980 Descending Chicago Center
08:23PM 42.3178 -85.1819 281° West 260 299 5,600 -1,740 Descending Chicago Center
08:24PM 42.3303 -85.2786 280° West 262 302 4,100 -900 Descending Chicago Center
08:25PM 42.3478 -85.3906 282° West 257 296 3,800 -780 Descending Chicago Center
08:26PM 42.3594 -85.4772 280° West 243 280 2,500 -600 Descending Chicago Center
08:27PM 42.3347 -85.5386 241° Southwest 201 231 2,600 -120 Climbing Chicago Center
08:28PM 42.2939 -85.5653 206° Southwest 191 220 2,300 -720 Descending Chicago Center
08:29PM 42.2519 -85.5544 169° South 151 174 1,200 -1,080 Descending Chicago Center